sensor_id;sensor_type;location;lat;lon;timestamp;P1;durP1;ratioP1;P2;durP2;ratioP2
34836;SDS011;21053;50.848;4.652;2022-12-11T00:02:22;46.85;;;18.30;;
34836;SDS011;21053;50.848;4.652;2022-12-11T00:04:47;39.38;;;17.67;;
34836;SDS011;21053;50.848;4.652;2022-12-11T00:16:06;40.95;;;17.92;;
34836;SDS011;21053;50.848;4.652;2022-12-11T00:21:03;42.20;;;17.83;;
34836;SDS011;21053;50.848;4.652;2022-12-11T00:23:32;37.70;;;16.27;;
34836;SDS011;21053;50.848;4.652;2022-12-11T00:26:04;42.88;;;17.80;;
34836;SDS011;21053;50.848;4.652;2022-12-11T00:28:31;45.88;;;17.30;;
34836;SDS011;21053;50.848;4.652;2022-12-11T00:30:58;42.58;;;16.33;;
34836;SDS011;21053;50.848;4.652;2022-12-11T00:33:25;38.75;;;17.08;;
34836;SDS011;21053;50.848;4.652;2022-12-11T00:35:51;42.20;;;17.67;;
34836;SDS011;21053;50.848;4.652;2022-12-11T00:38:19;44.05;;;17.70;;
34836;SDS011;21053;50.848;4.652;2022-12-11T00:40:47;43.38;;;18.65;;
34836;SDS011;21053;50.848;4.652;2022-12-11T00:43:16;45.35;;;19.08;;
34836;SDS011;21053;50.848;4.652;2022-12-11T00:45:42;44.67;;;18.10;;
34836;SDS011;21053;50.848;4.652;2022-12-11T00:48:10;45.60;;;17.38;;
34836;SDS011;21053;50.848;4.652;2022-12-11T00:50:43;52.60;;;19.13;;
34836;SDS011;21053;50.848;4.652;2022-12-11T00:53:08;49.25;;;19.35;;
34836;SDS011;21053;50.848;4.652;2022-12-11T00:55:38;45.33;;;18.40;;
34836;SDS011;21053;50.848;4.652;2022-12-11T00:58:06;47.13;;;19.15;;
34836;SDS011;21053;50.848;4.652;2022-12-11T01:00:33;45.85;;;18.65;;
34836;SDS011;21053;50.848;4.652;2022-12-11T01:03:00;49.75;;;19.25;;
34836;SDS011;21053;50.848;4.652;2022-12-11T01:05:26;40.60;;;17.88;;
34836;SDS011;21053;50.848;4.652;2022-12-11T01:07:52;49.90;;;19.92;;
34836;SDS011;21053;50.848;4.652;2022-12-11T01:10:19;45.45;;;18.38;;
34836;SDS011;21053;50.848;4.652;2022-12-11T01:12:49;44.42;;;18.77;;
34836;SDS011;21053;50.848;4.652;2022-12-11T01:15:21;43.25;;;17.95;;
34836;SDS011;21053;50.848;4.652;2022-12-11T01:17:49;47.85;;;19.20;;
34836;SDS011;21053;50.848;4.652;2022-12-11T01:20:17;51.67;;;19.75;;
34836;SDS011;21053;50.848;4.652;2022-12-11T01:22:45;50.00;;;19.42;;
34836;SDS011;21053;50.848;4.652;2022-12-11T01:25:12;60.92;;;22.58;;
34836;SDS011;21053;50.848;4.652;2022-12-11T01:27:39;58.97;;;21.52;;
34836;SDS011;21053;50.848;4.652;2022-12-11T01:30:05;57.17;;;21.35;;
34836;SDS011;21053;50.848;4.652;2022-12-11T01:32:34;54.45;;;21.25;;
34836;SDS011;21053;50.848;4.652;2022-12-11T01:35:06;60.50;;;22.27;;
34836;SDS011;21053;50.848;4.652;2022-12-11T01:37:33;59.42;;;21.48;;
34836;SDS011;21053;50.848;4.652;2022-12-11T01:39:59;49.10;;;19.45;;
34836;SDS011;21053;50.848;4.652;2022-12-11T01:42:25;55.78;;;19.85;;
34836;SDS011;21053;50.848;4.652;2022-12-11T01:48:10;52.80;;;20.20;;
34836;SDS011;21053;50.848;4.652;2022-12-11T01:50:44;49.58;;;19.75;;
34836;SDS011;21053;50.848;4.652;2022-12-11T01:53:21;46.90;;;19.48;;
34836;SDS011;21053;50.848;4.652;2022-12-11T01:55:54;55.58;;;21.02;;
34836;SDS011;21053;50.848;4.652;2022-12-11T01:58:21;51.70;;;19.48;;
34836;SDS011;21053;50.848;4.652;2022-12-11T02:00:51;48.85;;;19.67;;
34836;SDS011;21053;50.848;4.652;2022-12-11T02:03:17;52.17;;;20.33;;
34836;SDS011;21053;50.848;4.652;2022-12-11T02:05:45;47.00;;;19.55;;
34836;SDS011;21053;50.848;4.652;2022-12-11T02:08:11;52.38;;;20.15;;
34836;SDS011;21053;50.848;4.652;2022-12-11T02:10:41;55.35;;;20.38;;
34836;SDS011;21053;50.848;4.652;2022-12-11T02:16:05;49.50;;;19.25;;
34836;SDS011;21053;50.848;4.652;2022-12-11T02:24:34;54.20;;;18.92;;
34836;SDS011;21053;50.848;4.652;2022-12-11T02:29:35;46.85;;;18.48;;
34836;SDS011;21053;50.848;4.652;2022-12-11T02:32:16;48.95;;;19.77;;
34836;SDS011;21053;50.848;4.652;2022-12-11T02:34:48;47.45;;;17.83;;
34836;SDS011;21053;50.848;4.652;2022-12-11T02:37:23;57.35;;;21.38;;
34836;SDS011;21053;50.848;4.652;2022-12-11T02:39:54;43.15;;;18.23;;
34836;SDS011;21053;50.848;4.652;2022-12-11T02:42:22;49.28;;;19.15;;
34836;SDS011;21053;50.848;4.652;2022-12-11T02:44:53;45.97;;;18.58;;
34836;SDS011;21053;50.848;4.652;2022-12-11T02:47:23;49.88;;;19.92;;
34836;SDS011;21053;50.848;4.652;2022-12-11T02:49:54;51.30;;;18.67;;
34836;SDS011;21053;50.848;4.652;2022-12-11T02:52:22;49.13;;;18.48;;
34836;SDS011;21053;50.848;4.652;2022-12-11T02:54:49;47.63;;;19.10;;
34836;SDS011;21053;50.848;4.652;2022-12-11T03:00:14;49.03;;;20.17;;
34836;SDS011;21053;50.848;4.652;2022-12-11T03:02:42;50.47;;;18.98;;
34836;SDS011;21053;50.848;4.652;2022-12-11T03:05:12;47.53;;;19.17;;
34836;SDS011;21053;50.848;4.652;2022-12-11T03:07:42;48.88;;;18.38;;
34836;SDS011;21053;50.848;4.652;2022-12-11T03:10:11;49.92;;;19.52;;
34836;SDS011;21053;50.848;4.652;2022-12-11T03:12:41;51.92;;;18.27;;
34836;SDS011;21053;50.848;4.652;2022-12-11T03:15:13;51.85;;;19.30;;
34836;SDS011;21053;50.848;4.652;2022-12-11T03:25:34;51.10;;;20.08;;
34836;SDS011;21053;50.848;4.652;2022-12-11T03:28:27;56.60;;;19.65;;
34836;SDS011;21053;50.848;4.652;2022-12-11T03:30:54;50.05;;;18.42;;
34836;SDS011;21053;50.848;4.652;2022-12-11T03:33:25;43.30;;;18.25;;
34836;SDS011;21053;50.848;4.652;2022-12-11T03:36:00;45.90;;;18.00;;
34836;SDS011;21053;50.848;4.652;2022-12-11T03:38:45;49.13;;;19.45;;
34836;SDS011;21053;50.848;4.652;2022-12-11T03:41:17;49.63;;;19.88;;
34836;SDS011;21053;50.848;4.652;2022-12-11T03:43:47;49.65;;;19.08;;
34836;SDS011;21053;50.848;4.652;2022-12-11T03:46:16;58.78;;;20.08;;
34836;SDS011;21053;50.848;4.652;2022-12-11T03:48:45;48.42;;;19.50;;
34836;SDS011;21053;50.848;4.652;2022-12-11T03:51:13;49.08;;;19.67;;
34836;SDS011;21053;50.848;4.652;2022-12-11T03:53:42;57.05;;;20.15;;
34836;SDS011;21053;50.848;4.652;2022-12-11T03:56:09;46.90;;;18.83;;
34836;SDS011;21053;50.848;4.652;2022-12-11T03:58:38;45.15;;;17.80;;
34836;SDS011;21053;50.848;4.652;2022-12-11T04:01:07;45.03;;;18.70;;
34836;SDS011;21053;50.848;4.652;2022-12-11T04:03:34;39.92;;;17.55;;
34836;SDS011;21053;50.848;4.652;2022-12-11T04:06:01;46.90;;;18.77;;
34836;SDS011;21053;50.848;4.652;2022-12-11T04:08:27;45.00;;;17.10;;
34836;SDS011;21053;50.848;4.652;2022-12-11T04:10:54;52.35;;;18.17;;
34836;SDS011;21053;50.848;4.652;2022-12-11T04:13:39;44.50;;;18.05;;
34836;SDS011;21053;50.848;4.652;2022-12-11T04:16:07;48.67;;;19.10;;
34836;SDS011;21053;50.848;4.652;2022-12-11T04:18:33;50.47;;;18.92;;
34836;SDS011;21053;50.848;4.652;2022-12-11T04:21:18;44.15;;;18.65;;
34836;SDS011;21053;50.848;4.652;2022-12-11T04:24:03;50.78;;;17.98;;
34836;SDS011;21053;50.848;4.652;2022-12-11T04:26:42;44.78;;;17.70;;
34836;SDS011;21053;50.848;4.652;2022-12-11T04:29:09;42.47;;;17.33;;
34836;SDS011;21053;50.848;4.652;2022-12-11T04:31:35;40.45;;;17.38;;
34836;SDS011;21053;50.848;4.652;2022-12-11T04:34:01;46.08;;;18.90;;
34836;SDS011;21053;50.848;4.652;2022-12-11T04:36:27;48.97;;;17.42;;
34836;SDS011;21053;50.848;4.652;2022-12-11T04:38:56;48.15;;;17.65;;
34836;SDS011;21053;50.848;4.652;2022-12-11T04:41:22;55.85;;;19.48;;
34836;SDS011;21053;50.848;4.652;2022-12-11T04:43:49;58.72;;;20.35;;
34836;SDS011;21053;50.848;4.652;2022-12-11T04:46:18;50.35;;;19.25;;
34836;SDS011;21053;50.848;4.652;2022-12-11T04:48:47;50.55;;;18.30;;
34836;SDS011;21053;50.848;4.652;2022-12-11T04:51:14;47.83;;;18.27;;
34836;SDS011;21053;50.848;4.652;2022-12-11T04:53:40;53.75;;;20.00;;
34836;SDS011;21053;50.848;4.652;2022-12-11T04:56:08;63.28;;;20.10;;
34836;SDS011;21053;50.848;4.652;2022-12-11T04:58:37;56.20;;;19.33;;
34836;SDS011;21053;50.848;4.652;2022-12-11T05:01:06;55.90;;;20.17;;
34836;SDS011;21053;50.848;4.652;2022-12-11T05:03:36;55.20;;;19.42;;
34836;SDS011;21053;50.848;4.652;2022-12-11T05:06:02;52.90;;;19.85;;
34836;SDS011;21053;50.848;4.652;2022-12-11T05:08:28;52.80;;;19.80;;
34836;SDS011;21053;50.848;4.652;2022-12-11T05:11:01;50.55;;;18.35;;
34836;SDS011;21053;50.848;4.652;2022-12-11T05:13:29;55.95;;;20.38;;
34836;SDS011;21053;50.848;4.652;2022-12-11T05:15:57;54.22;;;20.15;;
34836;SDS011;21053;50.848;4.652;2022-12-11T05:18:26;53.35;;;19.38;;
34836;SDS011;21053;50.848;4.652;2022-12-11T05:20:59;63.03;;;20.88;;
34836;SDS011;21053;50.848;4.652;2022-12-11T05:23:30;58.80;;;20.42;;
34836;SDS011;21053;50.848;4.652;2022-12-11T05:25:59;56.53;;;20.38;;
34836;SDS011;21053;50.848;4.652;2022-12-11T05:28:29;59.20;;;20.73;;
34836;SDS011;21053;50.848;4.652;2022-12-11T05:30:59;54.38;;;19.63;;
34836;SDS011;21053;50.848;4.652;2022-12-11T05:33:27;60.53;;;21.92;;
34836;SDS011;21053;50.848;4.652;2022-12-11T05:35:54;59.45;;;21.42;;
34836;SDS011;21053;50.848;4.652;2022-12-11T05:38:21;60.08;;;22.15;;
34836;SDS011;21053;50.848;4.652;2022-12-11T05:40:57;61.25;;;21.15;;
34836;SDS011;21053;50.848;4.652;2022-12-11T05:43:27;64.72;;;21.25;;
34836;SDS011;21053;50.848;4.652;2022-12-11T05:45:56;58.30;;;21.73;;
34836;SDS011;21053;50.848;4.652;2022-12-11T05:48:30;67.53;;;23.10;;
34836;SDS011;21053;50.848;4.652;2022-12-11T05:50:57;56.00;;;20.90;;
34836;SDS011;21053;50.848;4.652;2022-12-11T05:53:23;63.70;;;22.52;;
34836;SDS011;21053;50.848;4.652;2022-12-11T05:55:49;69.30;;;22.83;;
34836;SDS011;21053;50.848;4.652;2022-12-11T05:58:18;54.17;;;22.15;;
34836;SDS011;21053;50.848;4.652;2022-12-11T06:00:45;64.15;;;22.58;;
34836;SDS011;21053;50.848;4.652;2022-12-11T06:03:11;63.28;;;23.13;;
34836;SDS011;21053;50.848;4.652;2022-12-11T06:05:41;58.70;;;21.17;;
34836;SDS011;21053;50.848;4.652;2022-12-11T06:08:07;67.97;;;21.40;;
34836;SDS011;21053;50.848;4.652;2022-12-11T06:10:34;66.10;;;23.80;;
34836;SDS011;21053;50.848;4.652;2022-12-11T06:13:00;71.80;;;23.27;;
34836;SDS011;21053;50.848;4.652;2022-12-11T06:15:26;57.95;;;22.17;;
34836;SDS011;21053;50.848;4.652;2022-12-11T06:20:24;67.45;;;22.52;;
34836;SDS011;21053;50.848;4.652;2022-12-11T06:22:50;64.20;;;23.88;;
34836;SDS011;21053;50.848;4.652;2022-12-11T06:25:16;61.38;;;23.17;;
34836;SDS011;21053;50.848;4.652;2022-12-11T06:27:44;64.53;;;22.88;;
34836;SDS011;21053;50.848;4.652;2022-12-11T06:30:10;67.78;;;24.02;;
34836;SDS011;21053;50.848;4.652;2022-12-11T06:32:36;58.13;;;22.15;;
34836;SDS011;21053;50.848;4.652;2022-12-11T06:35:02;60.40;;;24.15;;
34836;SDS011;21053;50.848;4.652;2022-12-11T06:37:30;69.43;;;23.63;;
34836;SDS011;21053;50.848;4.652;2022-12-11T06:39:57;63.22;;;23.33;;
34836;SDS011;21053;50.848;4.652;2022-12-11T06:42:25;62.88;;;22.42;;
34836;SDS011;21053;50.848;4.652;2022-12-11T06:44:51;64.18;;;22.40;;
34836;SDS011;21053;50.848;4.652;2022-12-11T06:47:18;64.88;;;24.08;;
34836;SDS011;21053;50.848;4.652;2022-12-11T06:49:46;66.90;;;23.67;;
34836;SDS011;21053;50.848;4.652;2022-12-11T06:52:14;68.60;;;24.73;;
34836;SDS011;21053;50.848;4.652;2022-12-11T06:54:46;65.15;;;24.00;;
34836;SDS011;21053;50.848;4.652;2022-12-11T06:57:11;67.20;;;24.15;;
34836;SDS011;21053;50.848;4.652;2022-12-11T06:59:37;67.10;;;22.98;;
34836;SDS011;21053;50.848;4.652;2022-12-11T07:02:03;62.55;;;24.40;;
34836;SDS011;21053;50.848;4.652;2022-12-11T07:04:29;71.75;;;25.13;;
34836;SDS011;21053;50.848;4.652;2022-12-11T07:06:55;63.80;;;23.95;;
34836;SDS011;21053;50.848;4.652;2022-12-11T07:09:24;72.80;;;24.48;;
34836;SDS011;21053;50.848;4.652;2022-12-11T07:19:47;68.57;;;24.30;;
34836;SDS011;21053;50.848;4.652;2022-12-11T07:22:15;69.32;;;24.33;;
34836;SDS011;21053;50.848;4.652;2022-12-11T07:24:41;67.53;;;24.50;;
34836;SDS011;21053;50.848;4.652;2022-12-11T07:27:08;66.60;;;24.48;;
34836;SDS011;21053;50.848;4.652;2022-12-11T07:29:34;56.50;;;22.52;;
34836;SDS011;21053;50.848;4.652;2022-12-11T07:32:01;68.43;;;23.10;;
34836;SDS011;21053;50.848;4.652;2022-12-11T07:34:26;66.30;;;23.95;;
34836;SDS011;21053;50.848;4.652;2022-12-11T07:36:54;64.70;;;23.50;;
34836;SDS011;21053;50.848;4.652;2022-12-11T07:39:21;67.97;;;23.88;;
34836;SDS011;21053;50.848;4.652;2022-12-11T07:41:48;52.45;;;21.33;;
34836;SDS011;21053;50.848;4.652;2022-12-11T07:44:15;62.67;;;23.70;;
34836;SDS011;21053;50.848;4.652;2022-12-11T07:46:47;68.20;;;23.38;;
34836;SDS011;21053;50.848;4.652;2022-12-11T07:49:13;59.30;;;22.42;;
34836;SDS011;21053;50.848;4.652;2022-12-11T07:51:39;61.28;;;21.83;;
34836;SDS011;21053;50.848;4.652;2022-12-11T07:54:10;59.15;;;22.95;;
34836;SDS011;21053;50.848;4.652;2022-12-11T07:56:40;65.15;;;22.73;;
34836;SDS011;21053;50.848;4.652;2022-12-11T07:59:06;54.65;;;21.00;;
34836;SDS011;21053;50.848;4.652;2022-12-11T08:01:33;57.10;;;22.50;;
34836;SDS011;21053;50.848;4.652;2022-12-11T08:04:04;63.15;;;22.25;;
34836;SDS011;21053;50.848;4.652;2022-12-11T08:06:38;63.28;;;23.02;;
34836;SDS011;21053;50.848;4.652;2022-12-11T08:17:36;64.15;;;21.13;;
34836;SDS011;21053;50.848;4.652;2022-12-11T08:22:34;59.00;;;21.63;;
34836;SDS011;21053;50.848;4.652;2022-12-11T08:25:00;54.83;;;21.30;;
34836;SDS011;21053;50.848;4.652;2022-12-11T08:27:27;54.22;;;20.92;;
34836;SDS011;21053;50.848;4.652;2022-12-11T08:29:52;57.85;;;21.77;;
34836;SDS011;21053;50.848;4.652;2022-12-11T08:32:24;57.78;;;20.85;;
34836;SDS011;21053;50.848;4.652;2022-12-11T08:39:50;62.50;;;21.40;;
34836;SDS011;21053;50.848;4.652;2022-12-11T08:42:16;58.70;;;21.00;;
34836;SDS011;21053;50.848;4.652;2022-12-11T08:44:43;57.63;;;20.30;;
34836;SDS011;21053;50.848;4.652;2022-12-11T08:47:10;60.35;;;24.27;;
34836;SDS011;21053;50.848;4.652;2022-12-11T08:49:38;52.90;;;20.70;;
34836;SDS011;21053;50.848;4.652;2022-12-11T08:52:11;60.47;;;22.40;;
34836;SDS011;21053;50.848;4.652;2022-12-11T08:54:38;56.00;;;20.17;;
34836;SDS011;21053;50.848;4.652;2022-12-11T08:57:05;55.20;;;21.75;;
34836;SDS011;21053;50.848;4.652;2022-12-11T08:59:34;51.92;;;20.65;;
34836;SDS011;21053;50.848;4.652;2022-12-11T09:04:33;54.47;;;19.30;;
34836;SDS011;21053;50.848;4.652;2022-12-11T09:07:00;50.28;;;21.40;;
34836;SDS011;21053;50.848;4.652;2022-12-11T09:09:28;51.17;;;20.10;;
34836;SDS011;21053;50.848;4.652;2022-12-11T09:11:55;51.45;;;20.05;;
34836;SDS011;21053;50.848;4.652;2022-12-11T09:14:23;47.80;;;19.27;;
34836;SDS011;21053;50.848;4.652;2022-12-11T09:16:51;48.28;;;19.10;;
34836;SDS011;21053;50.848;4.652;2022-12-11T09:19:20;51.50;;;19.30;;
34836;SDS011;21053;50.848;4.652;2022-12-11T09:21:47;52.95;;;19.52;;
34836;SDS011;21053;50.848;4.652;2022-12-11T09:24:14;44.92;;;18.17;;
34836;SDS011;21053;50.848;4.652;2022-12-11T09:26:40;48.72;;;18.17;;
34836;SDS011;21053;50.848;4.652;2022-12-11T09:29:06;43.05;;;17.85;;
34836;SDS011;21053;50.848;4.652;2022-12-11T09:31:33;47.22;;;17.73;;
34836;SDS011;21053;50.848;4.652;2022-12-11T09:34:04;48.00;;;19.00;;
34836;SDS011;21053;50.848;4.652;2022-12-11T09:36:34;42.95;;;17.30;;
34836;SDS011;21053;50.848;4.652;2022-12-11T09:39:03;49.88;;;18.05;;
34836;SDS011;21053;50.848;4.652;2022-12-11T09:41:33;51.13;;;19.02;;
34836;SDS011;21053;50.848;4.652;2022-12-11T09:44:21;42.97;;;17.75;;
34836;SDS011;21053;50.848;4.652;2022-12-11T09:55:15;41.65;;;17.55;;
34836;SDS011;21053;50.848;4.652;2022-12-11T09:57:47;48.45;;;18.77;;
34836;SDS011;21053;50.848;4.652;2022-12-11T10:00:30;48.83;;;19.65;;
34836;SDS011;21053;50.848;4.652;2022-12-11T10:11:40;52.28;;;18.65;;
34836;SDS011;21053;50.848;4.652;2022-12-11T10:22:26;46.50;;;18.75;;
34836;SDS011;21053;50.848;4.652;2022-12-11T10:24:57;44.75;;;17.58;;
34836;SDS011;21053;50.848;4.652;2022-12-11T10:27:30;41.97;;;17.42;;
34836;SDS011;21053;50.848;4.652;2022-12-11T10:30:16;44.55;;;17.83;;
34836;SDS011;21053;50.848;4.652;2022-12-11T10:35:35;43.65;;;18.10;;
34836;SDS011;21053;50.848;4.652;2022-12-11T10:40:47;53.58;;;23.83;;
34836;SDS011;21053;50.848;4.652;2022-12-11T10:43:30;39.55;;;17.00;;
34836;SDS011;21053;50.848;4.652;2022-12-11T10:46:00;46.35;;;19.70;;
34836;SDS011;21053;50.848;4.652;2022-12-11T10:48:26;46.75;;;18.55;;
34836;SDS011;21053;50.848;4.652;2022-12-11T10:51:02;42.20;;;17.33;;
34836;SDS011;21053;50.848;4.652;2022-12-11T10:53:32;42.83;;;18.58;;
34836;SDS011;21053;50.848;4.652;2022-12-11T10:55:59;59.58;;;22.35;;
34836;SDS011;21053;50.848;4.652;2022-12-11T10:58:27;40.95;;;16.90;;
34836;SDS011;21053;50.848;4.652;2022-12-11T11:03:32;44.53;;;17.42;;
34836;SDS011;21053;50.848;4.652;2022-12-11T11:08:43;38.83;;;16.27;;
34836;SDS011;21053;50.848;4.652;2022-12-11T11:11:23;44.70;;;17.05;;
34836;SDS011;21053;50.848;4.652;2022-12-11T11:14:03;45.90;;;17.05;;
34836;SDS011;21053;50.848;4.652;2022-12-11T11:16:31;43.92;;;16.70;;
34836;SDS011;21053;50.848;4.652;2022-12-11T11:19:02;44.05;;;16.95;;
34836;SDS011;21053;50.848;4.652;2022-12-11T11:26:10;44.03;;;17.17;;
34836;SDS011;21053;50.848;4.652;2022-12-11T11:28:46;44.67;;;17.55;;
34836;SDS011;21053;50.848;4.652;2022-12-11T11:31:19;40.85;;;16.55;;
34836;SDS011;21053;50.848;4.652;2022-12-11T11:33:56;48.20;;;16.88;;
34836;SDS011;21053;50.848;4.652;2022-12-11T11:36:31;46.15;;;17.10;;
34836;SDS011;21053;50.848;4.652;2022-12-11T11:41:59;43.45;;;16.73;;
34836;SDS011;21053;50.848;4.652;2022-12-11T11:44:38;48.72;;;16.73;;
34836;SDS011;21053;50.848;4.652;2022-12-11T11:47:20;46.33;;;16.45;;
34836;SDS011;21053;50.848;4.652;2022-12-11T11:52:49;34.67;;;15.23;;
34836;SDS011;21053;50.848;4.652;2022-12-11T11:58:16;37.25;;;14.75;;
34836;SDS011;21053;50.848;4.652;2022-12-11T12:00:49;40.58;;;16.23;;
34836;SDS011;21053;50.848;4.652;2022-12-11T12:03:21;33.75;;;14.35;;
34836;SDS011;21053;50.848;4.652;2022-12-11T12:20:40;32.50;;;13.02;;
34836;SDS011;21053;50.848;4.652;2022-12-11T12:39:26;32.63;;;14.68;;
34836;SDS011;21053;50.848;4.652;2022-12-11T12:42:12;36.95;;;15.63;;
34836;SDS011;21053;50.848;4.652;2022-12-11T12:44:58;33.58;;;14.07;;
34836;SDS011;21053;50.848;4.652;2022-12-11T12:47:31;38.83;;;15.00;;
34836;SDS011;21053;50.848;4.652;2022-12-11T12:49:59;37.95;;;15.15;;
34836;SDS011;21053;50.848;4.652;2022-12-11T12:52:31;42.55;;;15.98;;
34836;SDS011;21053;50.848;4.652;2022-12-11T12:55:02;32.67;;;15.27;;
34836;SDS011;21053;50.848;4.652;2022-12-11T12:57:40;40.00;;;15.70;;
34836;SDS011;21053;50.848;4.652;2022-12-11T13:00:34;42.33;;;15.23;;
34836;SDS011;21053;50.848;4.652;2022-12-11T13:03:10;43.63;;;15.50;;
34836;SDS011;21053;50.848;4.652;2022-12-11T13:08:37;45.58;;;16.23;;
34836;SDS011;21053;50.848;4.652;2022-12-11T13:11:18;37.35;;;13.73;;
34836;SDS011;21053;50.848;4.652;2022-12-11T13:14:01;41.22;;;14.73;;
34836;SDS011;21053;50.848;4.652;2022-12-11T13:16:37;38.92;;;14.15;;
34836;SDS011;21053;50.848;4.652;2022-12-11T13:19:25;46.10;;;17.08;;
34836;SDS011;21053;50.848;4.652;2022-12-11T13:21:57;50.45;;;16.52;;
34836;SDS011;21053;50.848;4.652;2022-12-11T13:24:30;41.63;;;16.95;;
34836;SDS011;21053;50.848;4.652;2022-12-11T13:27:07;43.63;;;16.90;;
34836;SDS011;21053;50.848;4.652;2022-12-11T13:29:47;41.20;;;16.13;;
34836;SDS011;21053;50.848;4.652;2022-12-11T13:34:43;42.63;;;16.00;;
34836;SDS011;21053;50.848;4.652;2022-12-11T13:37:30;40.55;;;16.95;;
34836;SDS011;21053;50.848;4.652;2022-12-11T13:40:07;43.20;;;16.27;;
34836;SDS011;21053;50.848;4.652;2022-12-11T13:42:58;42.95;;;16.55;;
34836;SDS011;21053;50.848;4.652;2022-12-11T13:48:21;49.13;;;17.55;;
34836;SDS011;21053;50.848;4.652;2022-12-11T13:50:55;45.75;;;17.70;;
34836;SDS011;21053;50.848;4.652;2022-12-11T13:53:22;43.70;;;16.85;;
34836;SDS011;21053;50.848;4.652;2022-12-11T13:56:02;43.80;;;16.48;;
34836;SDS011;21053;50.848;4.652;2022-12-11T14:03:39;51.50;;;17.88;;
34836;SDS011;21053;50.848;4.652;2022-12-11T14:06:14;43.60;;;16.67;;
34836;SDS011;21053;50.848;4.652;2022-12-11T14:08:43;44.47;;;16.55;;
34836;SDS011;21053;50.848;4.652;2022-12-11T14:19:30;48.05;;;17.08;;
34836;SDS011;21053;50.848;4.652;2022-12-11T14:22:04;42.85;;;17.67;;
34836;SDS011;21053;50.848;4.652;2022-12-11T14:24:33;47.33;;;16.88;;
34836;SDS011;21053;50.848;4.652;2022-12-11T14:27:00;50.15;;;17.92;;
34836;SDS011;21053;50.848;4.652;2022-12-11T14:32:02;50.42;;;17.60;;
34836;SDS011;21053;50.848;4.652;2022-12-11T14:34:43;43.15;;;17.58;;
34836;SDS011;21053;50.848;4.652;2022-12-11T14:37:14;46.90;;;17.60;;
34836;SDS011;21053;50.848;4.652;2022-12-11T14:42:22;44.55;;;17.13;;
34836;SDS011;21053;50.848;4.652;2022-12-11T14:45:49;83.45;;;32.55;;
34836;SDS011;21053;50.848;4.652;2022-12-11T14:50:31;49.22;;;18.27;;
34836;SDS011;21053;50.848;4.652;2022-12-11T14:54:24;67.95;;;26.13;;
34836;SDS011;21053;50.848;4.652;2022-12-11T14:57:00;90.00;;;33.58;;
34836;SDS011;21053;50.848;4.652;2022-12-11T14:59:32;81.05;;;30.77;;
34836;SDS011;21053;50.848;4.652;2022-12-11T15:02:25;72.38;;;26.13;;
34836;SDS011;21053;50.848;4.652;2022-12-11T15:05:11;54.28;;;21.35;;
34836;SDS011;21053;50.848;4.652;2022-12-11T15:07:55;49.42;;;17.75;;
34836;SDS011;21053;50.848;4.652;2022-12-11T15:10:22;51.63;;;18.83;;
34836;SDS011;21053;50.848;4.652;2022-12-11T15:12:52;45.28;;;17.77;;
34836;SDS011;21053;50.848;4.652;2022-12-11T15:15:25;51.90;;;18.52;;
34836;SDS011;21053;50.848;4.652;2022-12-11T15:20:28;48.05;;;17.90;;
34836;SDS011;21053;50.848;4.652;2022-12-11T15:23:05;51.10;;;18.80;;
34836;SDS011;21053;50.848;4.652;2022-12-11T15:25:31;50.83;;;20.40;;
34836;SDS011;21053;50.848;4.652;2022-12-11T15:28:00;49.13;;;19.13;;
34836;SDS011;21053;50.848;4.652;2022-12-11T15:30:31;51.50;;;20.33;;
34836;SDS011;21053;50.848;4.652;2022-12-11T15:35:34;45.30;;;16.92;;
34836;SDS011;21053;50.848;4.652;2022-12-11T15:38:03;64.05;;;24.30;;
34836;SDS011;21053;50.848;4.652;2022-12-11T15:40:29;72.38;;;29.38;;
34836;SDS011;21053;50.848;4.652;2022-12-11T15:43:01;50.13;;;18.23;;
34836;SDS011;21053;50.848;4.652;2022-12-11T15:45:27;48.72;;;17.95;;
34836;SDS011;21053;50.848;4.652;2022-12-11T15:47:56;48.47;;;18.35;;
34836;SDS011;21053;50.848;4.652;2022-12-11T15:50:27;50.83;;;19.23;;
34836;SDS011;21053;50.848;4.652;2022-12-11T15:52:55;45.55;;;17.10;;
34836;SDS011;21053;50.848;4.652;2022-12-11T15:55:22;44.42;;;17.08;;
34836;SDS011;21053;50.848;4.652;2022-12-11T15:58:00;47.05;;;16.70;;
34836;SDS011;21053;50.848;4.652;2022-12-11T16:00:27;47.63;;;18.38;;
34836;SDS011;21053;50.848;4.652;2022-12-11T16:02:53;43.30;;;16.33;;
34836;SDS011;21053;50.848;4.652;2022-12-11T16:05:20;42.67;;;17.50;;
34836;SDS011;21053;50.848;4.652;2022-12-11T16:07:49;47.00;;;17.58;;
34836;SDS011;21053;50.848;4.652;2022-12-11T16:10:20;46.03;;;17.35;;
34836;SDS011;21053;50.848;4.652;2022-12-11T16:19:30;43.08;;;17.08;;
34836;SDS011;21053;50.848;4.652;2022-12-11T16:22:09;46.40;;;17.25;;
34836;SDS011;21053;50.848;4.652;2022-12-11T16:24:39;42.53;;;16.92;;
34836;SDS011;21053;50.848;4.652;2022-12-11T16:27:05;55.83;;;17.90;;
34836;SDS011;21053;50.848;4.652;2022-12-11T16:29:38;56.08;;;19.92;;
34836;SDS011;21053;50.848;4.652;2022-12-11T16:32:05;50.22;;;18.85;;
34836;SDS011;21053;50.848;4.652;2022-12-11T16:34:35;45.45;;;18.58;;
34836;SDS011;21053;50.848;4.652;2022-12-11T16:39:31;48.22;;;17.40;;
34836;SDS011;21053;50.848;4.652;2022-12-11T16:42:04;54.25;;;18.88;;
34836;SDS011;21053;50.848;4.652;2022-12-11T16:44:33;49.22;;;17.65;;
34836;SDS011;21053;50.848;4.652;2022-12-11T16:47:01;48.75;;;17.95;;
34836;SDS011;21053;50.848;4.652;2022-12-11T16:49:28;49.80;;;18.77;;
34836;SDS011;21053;50.848;4.652;2022-12-11T16:51:56;37.38;;;14.93;;
34836;SDS011;21053;50.848;4.652;2022-12-11T16:54:23;47.47;;;16.80;;
34836;SDS011;21053;50.848;4.652;2022-12-11T16:56:50;48.88;;;18.88;;
34836;SDS011;21053;50.848;4.652;2022-12-11T16:59:18;40.25;;;16.73;;
34836;SDS011;21053;50.848;4.652;2022-12-11T17:01:47;43.17;;;16.48;;
34836;SDS011;21053;50.848;4.652;2022-12-11T17:04:15;41.85;;;16.05;;
34836;SDS011;21053;50.848;4.652;2022-12-11T17:06:44;44.40;;;14.57;;
34836;SDS011;21053;50.848;4.652;2022-12-11T17:09:13;41.08;;;16.55;;
34836;SDS011;21053;50.848;4.652;2022-12-11T17:14:10;40.67;;;15.82;;
34836;SDS011;21053;50.848;4.652;2022-12-11T17:19:08;48.08;;;17.92;;
34836;SDS011;21053;50.848;4.652;2022-12-11T17:24:03;49.20;;;18.45;;
34836;SDS011;21053;50.848;4.652;2022-12-11T17:26:32;52.15;;;18.80;;
34836;SDS011;21053;50.848;4.652;2022-12-11T17:33:59;50.20;;;18.17;;
34836;SDS011;21053;50.848;4.652;2022-12-11T17:36:26;50.60;;;19.30;;
34836;SDS011;21053;50.848;4.652;2022-12-11T17:38:52;57.20;;;22.05;;
34836;SDS011;21053;50.848;4.652;2022-12-11T17:41:21;57.10;;;21.45;;
34836;SDS011;21053;50.848;4.652;2022-12-11T17:43:49;54.47;;;20.23;;
34836;SDS011;21053;50.848;4.652;2022-12-11T17:46:16;51.60;;;19.23;;
34836;SDS011;21053;50.848;4.652;2022-12-11T17:48:46;53.83;;;19.17;;
34836;SDS011;21053;50.848;4.652;2022-12-11T17:51:18;52.10;;;19.42;;
34836;SDS011;21053;50.848;4.652;2022-12-11T17:53:49;51.97;;;18.00;;
34836;SDS011;21053;50.848;4.652;2022-12-11T17:56:18;48.70;;;18.13;;
34836;SDS011;21053;50.848;4.652;2022-12-11T17:58:47;47.08;;;17.80;;
34836;SDS011;21053;50.848;4.652;2022-12-11T18:01:17;48.63;;;18.38;;
34836;SDS011;21053;50.848;4.652;2022-12-11T18:03:43;47.13;;;15.88;;